Time;durP1;ratioP1;P1;durP2;ratioP2;P2;SDS_P1;SDS_P2;PMS_P1;PMS_P2;Temp;Humidity;BMP_temperature;BMP_pressure;BME280_temperature;BME280_humidity;BME280_pressure;Samples;Min_cycle;Max_cycle;Signal;HPM_P1;HPM_P2
2022/12/31 00:02:25;;;;;;;0.52;0.47;;;;;;;;;;5031613;28;20025;-74
2022/12/31 00:04:51;;;;;;;0.32;0.32;;;;;;;;;;5030242;28;20029;-74
2022/12/31 00:07:17;;;;;;;1.55;0.60;;;;;;;;;;5031141;28;20029;-74
2022/12/31 00:09:43;;;;;;;0.68;0.52;;;;;;;;;;5031561;28;20021;-75
2022/12/31 00:12:09;;;;;;;1.02;0.55;;;;;;;;;;5031229;28;20034;-75
2022/12/31 00:14:35;;;;;;;0.47;0.28;;;;;;;;;;5031655;28;20032;-75
2022/12/31 00:17:01;;;;;;;1.50;0.40;;;;;;;;;;5013128;28;20019;-73
2022/12/31 00:19:27;;;;;;;0.85;0.60;;;;;;;;;;5029953;28;20480;-74
2022/12/31 00:21:53;;;;;;;0.50;0.30;;;;;;;;;;5031499;28;20029;-75
2022/12/31 00:24:19;;;;;;;1.65;0.47;;;;;;;;;;5031245;28;20048;-75
2022/12/31 00:26:46;;;;;;;0.50;0.50;;;;;;;;;;5030912;28;20022;-76
2022/12/31 00:29:12;;;;;;;0.52;0.40;;;;;;;;;;5012809;28;20067;-74
2022/12/31 00:31:38;;;;;;;1.42;0.88;;;;;;;;;;5031422;28;20488;-74
2022/12/31 00:34:05;;;;;;;1.50;1.00;;;;;;;;;;5032863;28;20025;-74
2022/12/31 00:36:33;;;;;;;1.85;1.17;;;;;;;;;;5032473;28;20411;-74
2022/12/31 00:39:00;;;;;;;1.55;1.17;;;;;;;;;;5032336;28;20067;-73
2022/12/31 00:41:27;;;;;;;2.88;1.27;;;;;;;;;;5036719;28;20030;-74
2022/12/31 00:43:53;;;;;;;2.10;1.05;;;;;;;;;;5036405;28;20089;-73
2022/12/31 00:46:20;;;;;;;3.70;1.65;;;;;;;;;;5036392;28;20025;-75
2022/12/31 00:48:46;;;;;;;5.00;1.92;;;;;;;;;;5036094;28;20391;-74
2022/12/31 00:51:13;;;;;;;3.70;2.35;;;;;;;;;;5036089;28;20375;-73
2022/12/31 00:53:39;;;;;;;3.25;1.80;;;;;;;;;;5036050;28;20391;-73
2022/12/31 00:56:07;;;;;;;6.25;1.80;;;;;;;;;;5035758;28;20028;-73
2022/12/31 00:58:33;;;;;;;1.65;1.42;;;;;;;;;;5034193;28;20021;-74
2022/12/31 01:01:08;;;;;;;4.30;1.33;;;;;;;;;;5035726;28;20075;-74
2022/12/31 01:03:34;;;;;;;1.83;1.55;;;;;;;;;;5042853;28;20085;-75
2022/12/31 01:06:00;;;;;;;5.18;1.75;;;;;;;;;;5044937;28;20025;-75
2022/12/31 01:08:26;;;;;;;2.85;1.80;;;;;;;;;;5044057;28;20033;-73
2022/12/31 01:13:36;;;;;;;3.17;1.80;;;;;;;;;;5051025;28;20526;-75
2022/12/31 01:16:06;;;;;;;3.83;1.95;;;;;;;;;;5051112;28;20025;-76
2022/12/31 01:18:32;;;;;;;2.10;1.65;;;;;;;;;;5049414;28;20025;-75
2022/12/31 01:21:00;;;;;;;5.05;1.85;;;;;;;;;;5041017;28;20029;-74
2022/12/31 01:23:26;;;;;;;1.98;1.65;;;;;;;;;;5035585;28;20517;-74
2022/12/31 01:25:52;;;;;;;2.70;1.80;;;;;;;;;;5035537;28;20078;-75
2022/12/31 01:28:18;;;;;;;2.28;1.45;;;;;;;;;;5034611;28;20071;-74
2022/12/31 01:30:44;;;;;;;2.88;1.45;;;;;;;;;;5034673;28;20479;-74
2022/12/31 01:33:10;;;;;;;2.03;1.42;;;;;;;;;;5034767;28;20037;-74
2022/12/31 01:35:36;;;;;;;2.15;1.13;;;;;;;;;;5034512;28;20025;-75
2022/12/31 01:38:02;;;;;;;2.20;1.50;;;;;;;;;;5034143;28;20400;-74
2022/12/31 01:40:28;;;;;;;2.35;1.58;;;;;;;;;;5034672;28;20040;-74
2022/12/31 01:42:57;;;;;;;1.92;1.30;;;;;;;;;;5034144;28;20026;-74
2022/12/31 01:45:24;;;;;;;2.42;1.60;;;;;;;;;;5034387;28;20175;-74
2022/12/31 01:47:52;;;;;;;2.65;0.88;;;;;;;;;;5033591;28;20403;-73
2022/12/31 01:50:21;;;;;;;2.10;0.80;;;;;;;;;;5034318;28;20021;-74
2022/12/31 01:52:49;;;;;;;1.67;1.00;;;;;;;;;;5033895;28;20025;-73
2022/12/31 01:55:38;;;;;;;1.67;1.00;;;;;;;;;;5034027;28;20107;-73
2022/12/31 01:58:07;;;;;;;1.15;0.95;;;;;;;;;;5022905;28;20134;-74
2022/12/31 02:00:33;;;;;;;2.30;0.98;;;;;;;;;;5033906;28;20049;-74
2022/12/31 02:02:59;;;;;;;1.92;1.00;;;;;;;;;;5033922;28;20025;-74
2022/12/31 02:05:28;;;;;;;1.63;0.70;;;;;;;;;;5034150;28;20079;-74
2022/12/31 02:07:55;;;;;;;1.25;0.77;;;;;;;;;;5033180;28;20475;-74
2022/12/31 02:10:21;;;;;;;1.00;0.40;;;;;;;;;;5033851;28;20021;-73
2022/12/31 02:12:48;;;;;;;2.38;0.55;;;;;;;;;;5040904;28;20029;-74
2022/12/31 02:15:14;;;;;;;1.40;0.50;;;;;;;;;;5052236;28;20060;-74
2022/12/31 02:17:40;;;;;;;1.25;0.77;;;;;;;;;;5050829;28;20025;-75
2022/12/31 02:20:15;;;;;;;0.60;0.40;;;;;;;;;;5049596;28;20032;-73
2022/12/31 02:22:57;;;;;;;0.98;0.28;;;;;;;;;;5034942;28;20504;-74
2022/12/31 02:25:42;;;;;;;2.38;1.40;;;;;;;;;;5033649;28;20018;-74
2022/12/31 02:28:19;;;;;;;1.95;0.32;;;;;;;;;;5033802;28;20025;-75
2022/12/31 02:30:48;;;;;;;0.32;0.30;;;;;;;;;;5033552;28;20075;-73
2022/12/31 02:33:14;;;;;;;0.90;0.73;;;;;;;;;;5035223;28;20026;-74
2022/12/31 02:35:40;;;;;;;1.67;1.25;;;;;;;;;;5035151;28;20052;-72
2022/12/31 02:38:13;;;;;;;2.20;1.08;;;;;;;;;;5033415;28;20053;-74
2022/12/31 02:40:39;;;;;;;1.05;0.68;;;;;;;;;;5033239;28;20056;-74
2022/12/31 02:43:06;;;;;;;0.30;0.17;;;;;;;;;;5033222;28;20033;-75
2022/12/31 02:45:36;;;;;;;0.43;0.13;;;;;;;;;;5032995;28;20028;-75
2022/12/31 02:48:10;;;;;;;2.55;1.30;;;;;;;;;;5032615;28;20030;-74
2022/12/31 02:50:55;;;;;;;1.80;0.52;;;;;;;;;;5032783;28;20032;-73
2022/12/31 02:53:28;;;;;;;0.50;0.13;;;;;;;;;;5033090;28;20026;-74
2022/12/31 02:56:02;;;;;;;1.65;0.95;;;;;;;;;;5032974;28;20099;-74
2022/12/31 03:02:12;;;;;;;0.35;0.30;;;;;;;;;;5032766;28;20022;-75
2022/12/31 03:06:47;;;;;;;0.68;0.40;;;;;;;;;;5032826;28;20036;-73
2022/12/31 03:09:13;;;;;;;0.10;0.10;;;;;;;;;;5031983;28;20032;-73
2022/12/31 03:14:24;;;;;;;0.90;0.60;;;;;;;;;;5032807;28;20036;-74
2022/12/31 03:16:50;;;;;;;1.90;0.88;;;;;;;;;;5032086;28;20032;-73
2022/12/31 03:27:30;;;;;;;0.40;0.10;;;;;;;;;;5031944;28;20414;-74
2022/12/31 03:29:56;;;;;;;1.40;0.95;;;;;;;;;;5032244;28;20029;-74
2022/12/31 03:32:22;;;;;;;3.22;1.95;;;;;;;;;;5031887;28;20029;-75
2022/12/31 03:34:48;;;;;;;0.20;0.20;;;;;;;;;;5031775;28;20034;-75
2022/12/31 03:37:14;;;;;;;0.50;0.15;;;;;;;;;;5031014;28;20491;-75
2022/12/31 03:39:40;;;;;;;0.10;0.10;;;;;;;;;;5032051;28;20387;-75
2022/12/31 03:42:06;;;;;;;0.20;0.20;;;;;;;;;;5031044;28;20029;-75
2022/12/31 03:44:32;;;;;;;0.95;0.70;;;;;;;;;;5032462;28;20032;-75
2022/12/31 03:46:58;;;;;;;0.30;0.20;;;;;;;;;;5030529;28;20030;-72
2022/12/31 03:49:24;;;;;;;0.73;0.50;;;;;;;;;;5032009;28;20061;-74
2022/12/31 03:51:50;;;;;;;0.10;0.10;;;;;;;;;;5031923;28;20484;-74
2022/12/31 03:54:16;;;;;;;0.28;0.28;;;;;;;;;;5031773;28;20089;-75
2022/12/31 03:56:42;;;;;;;0.73;0.38;;;;;;;;;;5031962;28;20053;-74
2022/12/31 03:59:08;;;;;;;0.22;0.20;;;;;;;;;;5030990;28;20057;-72
2022/12/31 04:01:34;;;;;;;0.90;0.60;;;;;;;;;;5031957;28;20144;-74
2022/12/31 04:04:00;;;;;;;0.40;0.20;;;;;;;;;;5031345;28;20072;-76
2022/12/31 04:06:26;;;;;;;0.32;0.22;;;;;;;;;;5032068;28;20070;-76
2022/12/31 04:08:52;;;;;;;1.13;0.73;;;;;;;;;;5030938;28;20034;-76
2022/12/31 04:11:18;;;;;;;2.95;1.30;;;;;;;;;;5031975;28;20037;-76
2022/12/31 04:13:44;;;;;;;0.40;0.10;;;;;;;;;;5030639;28;20120;-76
2022/12/31 04:16:10;;;;;;;0.70;0.60;;;;;;;;;;5032208;28;20088;-75
2022/12/31 04:18:36;;;;;;;0.57;0.52;;;;;;;;;;5030990;28;20030;-73
2022/12/31 04:21:03;;;;;;;0.57;0.40;;;;;;;;;;5031470;28;20032;-74
2022/12/31 04:23:29;;;;;;;0.90;0.47;;;;;;;;;;5013582;28;20041;-73
2022/12/31 04:25:55;;;;;;;0.10;0.10;;;;;;;;;;5031687;28;20025;-75
2022/12/31 04:28:21;;;;;;;0.20;0.17;;;;;;;;;;5031003;28;20041;-76
2022/12/31 04:30:47;;;;;;;0.50;0.22;;;;;;;;;;5031112;28;20459;-75
2022/12/31 04:33:13;;;;;;;0.43;0.22;;;;;;;;;;5031211;28;20029;-74
2022/12/31 04:35:39;;;;;;;0.35;0.35;;;;;;;;;;5031346;28;20032;-74
2022/12/31 04:38:05;;;;;;;0.10;0.10;;;;;;;;;;5029176;28;20082;-73
2022/12/31 04:40:31;;;;;;;0.80;0.60;;;;;;;;;;5031330;28;20072;-74
2022/12/31 04:42:57;;;;;;;0.28;0.28;;;;;;;;;;5029904;28;20112;-74
2022/12/31 04:45:23;;;;;;;0.77;0.40;;;;;;;;;;5031028;28;20513;-73
2022/12/31 04:47:49;;;;;;;1.65;1.00;;;;;;;;;;5029776;28;20029;-74
2022/12/31 04:50:15;;;;;;;1.00;0.47;;;;;;;;;;5031139;28;20029;-74
2022/12/31 04:52:41;;;;;;;0.70;0.55;;;;;;;;;;5030915;28;20373;-74
2022/12/31 04:55:07;;;;;;;0.60;0.40;;;;;;;;;;5030976;28;20036;-74
2022/12/31 04:57:33;;;;;;;0.65;0.10;;;;;;;;;;5030280;28;20021;-74
2022/12/31 04:59:59;;;;;;;1.02;0.80;;;;;;;;;;5031178;28;20021;-74
2022/12/31 05:02:25;;;;;;;0.10;0.10;;;;;;;;;;5031572;28;20025;-74
2022/12/31 05:04:51;;;;;;;0.10;0.10;;;;;;;;;;5030882;28;20025;-74
2022/12/31 05:07:17;;;;;;;0.10;0.10;;;;;;;;;;5028923;28;20429;-73
2022/12/31 05:09:43;;;;;;;0.65;0.50;;;;;;;;;;5030777;28;20017;-74
2022/12/31 05:12:09;;;;;;;0.60;0.30;;;;;;;;;;5030256;28;20428;-74
2022/12/31 05:14:35;;;;;;;1.40;0.82;;;;;;;;;;5030700;28;20018;-74
2022/12/31 05:17:01;;;;;;;0.90;0.65;;;;;;;;;;5028989;28;20025;-73
2022/12/31 05:19:27;;;;;;;0.40;0.30;;;;;;;;;;5030478;28;20454;-73
2022/12/31 05:24:38;;;;;;;0.10;0.10;;;;;;;;;;5032142;28;20507;-73
2022/12/31 05:27:04;;;;;;;0.25;0.10;;;;;;;;;;5030696;28;20049;-71
2022/12/31 05:29:30;;;;;;;0.55;0.40;;;;;;;;;;5030587;28;20395;-74
2022/12/31 05:31:56;;;;;;;0.60;0.17;;;;;;;;;;5030464;28;20023;-74
2022/12/31 05:34:22;;;;;;;3.55;0.63;;;;;;;;;;5030478;28;20021;-73
2022/12/31 05:36:48;;;;;;;0.10;0.08;;;;;;;;;;5030304;28;20032;-72
2022/12/31 05:39:14;;;;;;;0.20;0.10;;;;;;;;;;5029739;28;20029;-73
2022/12/31 05:41:40;;;;;;;0.20;0.10;;;;;;;;;;5029001;28;20480;-74
2022/12/31 05:44:06;;;;;;;0.10;0.10;;;;;;;;;;5030380;28;20033;-74
2022/12/31 05:46:32;;;;;;;0.20;0.20;;;;;;;;;;5030607;28;20033;-74
2022/12/31 05:48:58;;;;;;;0.43;0.17;;;;;;;;;;5029478;28;20399;-73
2022/12/31 05:51:24;;;;;;;0.20;0.20;;;;;;;;;;5030547;28;20109;-74
2022/12/31 05:53:50;;;;;;;0.08;0.08;;;;;;;;;;5030225;28;20068;-73
2022/12/31 05:56:16;;;;;;;0.38;0.25;;;;;;;;;;5028899;28;20108;-73
2022/12/31 05:58:42;;;;;;;0.57;0.20;;;;;;;;;;5031416;28;20208;-72
2022/12/31 06:01:08;;;;;;;0.20;0.20;;;;;;;;;;5033815;28;20140;-74
2022/12/31 06:03:34;;;;;;;0.20;0.20;;;;;;;;;;5032657;28;20116;-74
2022/12/31 06:06:00;;;;;;;3.65;0.20;;;;;;;;;;5034821;28;20028;-74
2022/12/31 06:08:26;;;;;;;0.68;0.17;;;;;;;;;;5032781;28;20053;-74
2022/12/31 06:10:52;;;;;;;0.50;0.40;;;;;;;;;;5033355;28;20030;-74
2022/12/31 06:13:18;;;;;;;0.45;0.17;;;;;;;;;;5033751;28;20396;-75
2022/12/31 06:15:44;;;;;;;0.70;0.45;;;;;;;;;;5034022;28;20060;-75
2022/12/31 06:18:10;;;;;;;0.40;0.30;;;;;;;;;;5033199;28;20449;-74
2022/12/31 06:20:36;;;;;;;0.30;0.25;;;;;;;;;;5035239;28;20051;-75
2022/12/31 06:23:03;;;;;;;1.58;0.50;;;;;;;;;;5035290;22;20065;-76
2022/12/31 06:25:29;;;;;;;0.55;0.28;;;;;;;;;;5022319;28;20034;-76
2022/12/31 06:27:55;;;;;;;0.98;0.38;;;;;;;;;;5020743;28;20033;-77
2022/12/31 06:30:21;;;;;;;0.17;0.10;;;;;;;;;;5044422;28;20107;-77
2022/12/31 06:32:47;;;;;;;0.25;0.20;;;;;;;;;;5014116;28;20511;-77
2022/12/31 06:35:13;;;;;;;0.38;0.20;;;;;;;;;;5013631;28;20500;-77
2022/12/31 06:37:39;;;;;;;0.38;0.28;;;;;;;;;;5013101;28;20033;-77
2022/12/31 06:40:06;;;;;;;0.10;0.10;;;;;;;;;;5013497;28;20101;-77
2022/12/31 06:42:31;;;;;;;0.68;0.22;;;;;;;;;;5012276;28;20403;-76
2022/12/31 06:44:58;;;;;;;0.90;0.45;;;;;;;;;;5013629;28;20109;-76
2022/12/31 06:47:24;;;;;;;0.30;0.25;;;;;;;;;;5012822;28;20089;-77
2022/12/31 06:49:51;;;;;;;2.45;0.45;;;;;;;;;;5013435;28;20136;-76
2022/12/31 06:52:17;;;;;;;0.68;0.30;;;;;;;;;;5013315;28;20108;-76
2022/12/31 06:54:43;;;;;;;0.85;0.10;;;;;;;;;;5013573;28;20110;-77
2022/12/31 06:57:09;;;;;;;0.32;0.30;;;;;;;;;;5012658;28;20026;-76
2022/12/31 06:59:36;;;;;;;0.73;0.20;;;;;;;;;;5012296;28;20022;-76
2022/12/31 07:02:11;;;;;;;0.90;0.40;;;;;;;;;;5014547;28;20033;-76
2022/12/31 07:04:56;;;;;;;0.80;0.40;;;;;;;;;;5014308;28;20033;-77
2022/12/31 07:07:28;;;;;;;0.82;0.20;;;;;;;;;;5014303;28;20030;-77
2022/12/31 07:10:12;;;;;;;0.40;0.40;;;;;;;;;;5009570;28;20023;-78
2022/12/31 07:12:54;;;;;;;0.45;0.40;;;;;;;;;;5019342;28;20061;-77
2022/12/31 07:15:20;;;;;;;;;;;;;;;;;;5022491;28;20100;-77
2022/12/31 07:18:05;;;;;;;0.50;0.50;;;;;;;;;;5020805;28;19937;-77
2022/12/31 07:20:31;;;;;;;0.70;0.60;;;;;;;;;;5016243;28;20097;-77
2022/12/31 07:22:57;;;;;;;0.70;0.40;;;;;;;;;;5012970;28;20041;-77
2022/12/31 07:25:24;;;;;;;0.30;0.22;;;;;;;;;;5011954;28;20018;-78
2022/12/31 07:27:50;;;;;;;0.93;0.60;;;;;;;;;;5012574;28;20439;-76
2022/12/31 07:30:18;;;;;;;0.30;0.30;;;;;;;;;;5013044;28;20026;-77
2022/12/31 07:32:44;;;;;;;2.30;0.50;;;;;;;;;;5012694;28;20669;-78
2022/12/31 07:35:23;;;;;;;1.38;0.77;;;;;;;;;;5013125;28;20046;-76
2022/12/31 07:38:02;;;;;;;1.13;0.38;;;;;;;;;;5014222;28;20037;-76
2022/12/31 07:40:46;;;;;;;3.40;0.73;;;;;;;;;;5014254;28;20516;-76
2022/12/31 07:43:15;;;;;;;1.13;0.90;;;;;;;;;;4988989;28;20468;-76
2022/12/31 07:45:41;;;;;;;0.88;0.43;;;;;;;;;;5014195;28;20487;-76
2022/12/31 07:48:18;;;;;;;1.42;0.40;;;;;;;;;;5015616;28;20257;-76
2022/12/31 07:50:44;;;;;;;3.70;0.47;;;;;;;;;;5015268;28;20054;-76
2022/12/31 07:53:10;;;;;;;0.80;0.40;;;;;;;;;;5012387;28;20049;-77
2022/12/31 07:55:36;;;;;;;0.93;0.38;;;;;;;;;;5012058;28;20476;-76
2022/12/31 07:58:07;;;;;;;0.80;0.57;;;;;;;;;;5011008;28;20503;-77
2022/12/31 08:00:33;;;;;;;0.75;0.65;;;;;;;;;;5012773;28;20105;-77
2022/12/31 08:03:17;;;;;;;1.35;0.30;;;;;;;;;;5025431;22;20045;-78
2022/12/31 08:08:58;;;;;;;1.08;0.45;;;;;;;;;;5036258;28;20048;-77
2022/12/31 08:11:34;;;;;;;0.93;0.35;;;;;;;;;;5028941;28;20025;-75
2022/12/31 08:14:01;;;;;;;1.00;0.52;;;;;;;;;;5039129;28;20559;-77
2022/12/31 08:16:28;;;;;;;0.28;0.28;;;;;;;;;;5048273;28;20100;-76
2022/12/31 08:18:54;;;;;;;0.70;0.40;;;;;;;;;;5017960;28;20059;-75
2022/12/31 08:21:20;;;;;;;2.10;0.50;;;;;;;;;;5043247;28;20025;-75
2022/12/31 08:24:05;;;;;;;0.93;0.70;;;;;;;;;;5024061;28;20032;-74
2022/12/31 08:26:36;;;;;;;0.73;0.60;;;;;;;;;;5034648;28;20035;-75
2022/12/31 08:29:11;;;;;;;1.80;1.08;;;;;;;;;;5027885;28;20014;-77
2022/12/31 08:31:55;;;;;;;2.85;0.85;;;;;;;;;;5040601;28;20482;-75
2022/12/31 08:34:21;;;;;;;1.38;0.60;;;;;;;;;;5035612;28;20025;-76
2022/12/31 08:36:56;;;;;;;2.85;0.45;;;;;;;;;;5047723;28;20025;-78
2022/12/31 08:39:40;;;;;;;1.85;0.65;;;;;;;;;;5038233;28;20051;-77
2022/12/31 08:42:24;;;;;;;1.65;0.85;;;;;;;;;;5019764;28;20117;-77
2022/12/31 08:44:50;;;;;;;0.70;0.60;;;;;;;;;;5047667;28;20039;-77
2022/12/31 08:47:17;;;;;;;2.30;0.65;;;;;;;;;;5029671;28;20466;-77
2022/12/31 08:49:43;;;;;;;2.30;0.70;;;;;;;;;;5039898;28;20033;-77
2022/12/31 08:52:18;;;;;;;2.28;0.82;;;;;;;;;;5035256;28;20105;-76
2022/12/31 08:54:45;;;;;;;1.95;0.68;;;;;;;;;;5045491;28;20067;-77
2022/12/31 08:57:23;;;;;;;1.40;0.40;;;;;;;;;;5034509;28;20025;-77
2022/12/31 09:00:06;;;;;;;0.40;0.40;;;;;;;;;;5038236;28;20018;-78
2022/12/31 09:02:32;;;;;;;3.60;0.70;;;;;;;;;;5046829;28;20025;-76
2022/12/31 09:05:04;;;;;;;4.95;0.98;;;;;;;;;;5017450;28;20039;-78
2022/12/31 09:07:45;;;;;;;6.95;0.98;;;;;;;;;;5041887;28;20033;-78
2022/12/31 09:10:23;;;;;;;1.92;0.77;;;;;;;;;;5036167;28;20061;-78
2022/12/31 09:13:07;;;;;;;1.65;0.70;;;;;;;;;;5020800;28;20052;-78
2022/12/31 09:15:40;;;;;;;2.67;0.90;;;;;;;;;;5034836;28;20028;-78
2022/12/31 09:18:07;;;;;;;0.73;0.50;;;;;;;;;;5059432;28;20021;-77
2022/12/31 09:20:34;;;;;;;0.55;0.40;;;;;;;;;;5045642;28;20036;-77
2022/12/31 09:23:01;;;;;;;0.38;0.38;;;;;;;;;;5056345;28;20333;-76
2022/12/31 09:25:27;;;;;;;0.88;0.60;;;;;;;;;;5043777;28;20543;-78
2022/12/31 09:28:12;;;;;;;0.95;0.70;;;;;;;;;;5038589;28;20021;-78
2022/12/31 09:30:58;;;;;;;1.42;0.50;;;;;;;;;;5046448;28;20089;-78
2022/12/31 09:33:33;;;;;;;1.00;0.40;;;;;;;;;;5039908;28;20032;-78
2022/12/31 09:36:13;;;;;;;0.88;0.82;;;;;;;;;;5040084;28;20511;-78
2022/12/31 09:38:42;;;;;;;2.85;0.70;;;;;;;;;;5049286;28;20029;-74
2022/12/31 09:41:08;;;;;;;2.08;0.57;;;;;;;;;;5040223;28;20039;-78
2022/12/31 09:43:49;;;;;;;1.58;0.75;;;;;;;;;;5045672;28;20492;-77
2022/12/31 09:46:28;;;;;;;3.13;0.57;;;;;;;;;;5048761;28;20029;-77
2022/12/31 09:48:54;;;;;;;1.15;0.50;;;;;;;;;;5001913;28;20029;-76
2022/12/31 09:51:20;;;;;;;2.15;0.70;;;;;;;;;;5027642;28;20116;-77
2022/12/31 09:53:55;;;;;;;2.00;0.70;;;;;;;;;;5043691;28;20021;-78
2022/12/31 09:56:24;;;;;;;1.98;0.50;;;;;;;;;;5037227;28;20033;-76
2022/12/31 09:59:01;;;;;;;2.35;0.60;;;;;;;;;;5048063;28;20025;-77
2022/12/31 10:01:36;;;;;;;5.55;0.80;;;;;;;;;;5040255;28;20068;-77
2022/12/31 10:04:21;;;;;;;1.25;0.35;;;;;;;;;;5039962;28;20383;-77
2022/12/31 10:06:50;;;;;;;1.23;0.50;;;;;;;;;;5050120;28;20032;-78
2022/12/31 10:09:31;;;;;;;1.30;0.60;;;;;;;;;;5037325;28;20103;-78
2022/12/31 10:11:57;;;;;;;0.57;0.47;;;;;;;;;;5045639;28;20033;-77
2022/12/31 10:14:23;;;;;;;1.38;0.52;;;;;;;;;;5038070;28;20029;-77
2022/12/31 10:16:49;;;;;;;0.65;0.50;;;;;;;;;;5049865;28;20598;-78
2022/12/31 10:19:34;;;;;;;1.40;0.85;;;;;;;;;;5039521;28;20028;-77
2022/12/31 10:22:05;;;;;;;0.60;0.50;;;;;;;;;;5039349;28;20037;-78
2022/12/31 10:24:31;;;;;;;2.97;0.47;;;;;;;;;;5049816;28;20386;-78
2022/12/31 10:27:08;;;;;;;1.83;0.63;;;;;;;;;;5038180;28;20506;-77
2022/12/31 10:30:04;;;;;;;2.90;1.05;;;;;;;;;;5045630;28;20029;-78
2022/12/31 10:32:36;;;;;;;1.27;0.60;;;;;;;;;;5012862;28;20131;-78
2022/12/31 10:35:12;;;;;;;3.60;0.82;;;;;;;;;;5039639;28;20017;-79
2022/12/31 10:37:38;;;;;;;1.77;0.45;;;;;;;;;;5046089;28;20503;-79
2022/12/31 10:40:13;;;;;;;1.27;0.60;;;;;;;;;;5047953;28;20032;-79
2022/12/31 10:42:42;;;;;;;1.05;0.55;;;;;;;;;;5039358;28;20507;-78
2022/12/31 10:45:27;;;;;;;1.75;0.52;;;;;;;;;;5032489;28;20483;-80
2022/12/31 10:48:12;;;;;;;0.88;0.70;;;;;;;;;;5058012;28;20025;-79
2022/12/31 10:50:38;;;;;;;0.40;0.38;;;;;;;;;;5050947;28;20029;-79
2022/12/31 10:53:07;;;;;;;1.08;0.65;;;;;;;;;;5030629;28;20028;-79
2022/12/31 10:55:33;;;;;;;1.20;0.85;;;;;;;;;;5046793;28;20025;-79
2022/12/31 10:58:17;;;;;;;1.35;0.80;;;;;;;;;;5045398;28;20033;-79
2022/12/31 11:00:46;;;;;;;1.52;0.80;;;;;;;;;;5054582;28;20432;-79
2022/12/31 11:03:40;;;;;;;1.42;0.52;;;;;;;;;;5040907;28;20082;-77
2022/12/31 11:06:12;;;;;;;1.83;0.50;;;;;;;;;;5039818;28;20068;-78
2022/12/31 11:08:56;;;;;;;1.00;0.45;;;;;;;;;;5050195;28;20040;-76
2022/12/31 11:11:28;;;;;;;2.42;0.70;;;;;;;;;;5029578;28;20021;-78
2022/12/31 11:14:08;;;;;;;3.80;0.68;;;;;;;;;;5042580;28;20033;-78
2022/12/31 11:16:37;;;;;;;4.07;0.77;;;;;;;;;;5050439;28;20024;-78
2022/12/31 11:19:03;;;;;;;1.33;0.70;;;;;;;;;;5021070;28;20115;-78
2022/12/31 11:21:40;;;;;;;1.63;0.70;;;;;;;;;;5044753;28;20096;-78
2022/12/31 11:24:25;;;;;;;1.38;0.50;;;;;;;;;;5047712;28;20083;-79
2022/12/31 11:27:06;;;;;;;1.48;0.93;;;;;;;;;;5033419;28;20621;-79
2022/12/31 11:29:58;;;;;;;2.20;0.60;;;;;;;;;;5027603;28;20032;-79
2022/12/31 11:32:37;;;;;;;1.17;0.77;;;;;;;;;;4984308;28;20038;-79
2022/12/31 11:35:12;;;;;;;1.30;1.05;;;;;;;;;;5023725;28;20255;-78
2022/12/31 11:37:38;;;;;;;5.10;1.92;;;;;;;;;;5043915;28;20028;-78
2022/12/31 11:40:15;;;;;;;4.25;1.70;;;;;;;;;;5047171;28;20025;-79
2022/12/31 11:42:40;;;;;;;5.18;3.47;;;;;;;;;;5019062;28;20083;-78
2022/12/31 11:45:13;;;;;;;2.50;1.23;;;;;;;;;;5048307;28;20480;-78
2022/12/31 11:47:42;;;;;;;2.83;0.82;;;;;;;;;;5042219;28;20501;-78
2022/12/31 11:50:26;;;;;;;3.50;1.13;;;;;;;;;;5023453;28;20040;-76
2022/12/31 11:52:52;;;;;;;1.25;1.08;;;;;;;;;;5049301;28;20063;-79
2022/12/31 11:55:37;;;;;;;2.35;0.90;;;;;;;;;;5039119;28;20493;-76
2022/12/31 11:58:11;;;;;;;1.45;0.60;;;;;;;;;;5038906;28;20029;-78
2022/12/31 12:00:38;;;;;;;1.77;0.68;;;;;;;;;;5050213;28;20032;-78
2022/12/31 12:03:05;;;;;;;1.92;0.90;;;;;;;;;;5037599;28;20025;-78
2022/12/31 12:05:32;;;;;;;1.35;0.93;;;;;;;;;;5043305;28;20036;-76
2022/12/31 12:07:58;;;;;;;2.45;0.77;;;;;;;;;;5026044;28;20067;-76
2022/12/31 12:10:29;;;;;;;3.30;0.63;;;;;;;;;;5035145;28;20511;-77
2022/12/31 12:12:55;;;;;;;2.30;1.00;;;;;;;;;;5001659;28;20040;-77
2022/12/31 12:15:28;;;;;;;2.00;0.95;;;;;;;;;;5027136;28;20021;-77
2022/12/31 12:18:00;;;;;;;2.70;0.77;;;;;;;;;;5043180;28;20036;-77
2022/12/31 12:20:31;;;;;;;1.73;0.50;;;;;;;;;;5035127;28;20044;-77
2022/12/31 12:23:01;;;;;;;1.13;0.65;;;;;;;;;;5045501;22;20030;-74
2022/12/31 12:25:38;;;;;;;1.60;0.77;;;;;;;;;;4991213;28;20262;-74
2022/12/31 12:28:25;;;;;;;5.05;1.20;;;;;;;;;;4978609;28;20023;-73
2022/12/31 12:30:57;;;;;;;1.17;0.70;;;;;;;;;;5005783;28;20449;-75
2022/12/31 12:33:26;;;;;;;2.58;0.63;;;;;;;;;;4995513;28;20121;-75
2022/12/31 12:35:52;;;;;;;2.05;0.80;;;;;;;;;;4983355;28;20022;-74
2022/12/31 12:38:19;;;;;;;1.23;0.70;;;;;;;;;;5008969;28;20037;-76
2022/12/31 12:40:59;;;;;;;3.10;0.60;;;;;;;;;;4993706;28;20391;-75
2022/12/31 12:43:29;;;;;;;4.60;0.93;;;;;;;;;;5000044;28;20027;-75
2022/12/31 12:45:58;;;;;;;4.22;0.88;;;;;;;;;;4994954;28;20018;-75
2022/12/31 12:48:31;;;;;;;1.88;0.50;;;;;;;;;;4976336;28;20034;-73
2022/12/31 12:50:57;;;;;;;1.90;0.77;;;;;;;;;;4961590;28;20036;-74
2022/12/31 12:53:23;;;;;;;0.65;0.60;;;;;;;;;;4985026;28;20023;-75
2022/12/31 12:55:55;;;;;;;3.20;0.65;;;;;;;;;;4983464;28;20034;-75
2022/12/31 12:58:33;;;;;;;1.40;0.80;;;;;;;;;;4975850;28;20062;-76
2022/12/31 13:01:18;;;;;;;1.67;0.68;;;;;;;;;;4961561;28;20508;-74
2022/12/31 13:03:50;;;;;;;3.90;0.77;;;;;;;;;;4981426;28;20039;-74
2022/12/31 13:06:25;;;;;;;1.75;0.50;;;;;;;;;;4986825;28;20036;-71
2022/12/31 13:09:04;;;;;;;2.40;0.80;;;;;;;;;;4974014;28;20058;-74
2022/12/31 13:11:40;;;;;;;3.17;1.17;;;;;;;;;;4969728;28;20071;-75
2022/12/31 13:14:06;;;;;;;1.10;0.50;;;;;;;;;;4993371;28;20114;-74
2022/12/31 13:16:50;;;;;;;2.92;0.60;;;;;;;;;;4988194;28;20019;-74
2022/12/31 13:19:19;;;;;;;1.00;0.70;;;;;;;;;;4978089;28;20022;-76
2022/12/31 13:21:55;;;;;;;0.40;0.40;;;;;;;;;;4981330;28;20066;-74
2022/12/31 13:24:36;;;;;;;1.60;0.60;;;;;;;;;;4987166;28;20037;-74
2022/12/31 13:27:02;;;;;;;1.42;0.93;;;;;;;;;;4961826;28;20102;-74
2022/12/31 13:29:30;;;;;;;1.38;0.63;;;;;;;;;;4991342;28;20022;-74
2022/12/31 13:31:57;;;;;;;4.88;0.88;;;;;;;;;;4979525;28;20212;-75
2022/12/31 13:34:31;;;;;;;4.03;0.70;;;;;;;;;;4987726;28;20033;-73
2022/12/31 13:36:59;;;;;;;2.05;0.47;;;;;;;;;;4960785;28;20049;-75
2022/12/31 13:39:31;;;;;;;3.30;0.73;;;;;;;;;;4983656;28;20019;-74
2022/12/31 13:42:08;;;;;;;1.55;0.50;;;;;;;;;;4986074;28;20023;-74
2022/12/31 13:44:50;;;;;;;1.08;0.40;;;;;;;;;;4977531;28;20035;-75
2022/12/31 13:47:22;;;;;;;1.10;0.90;;;;;;;;;;4999848;28;20086;-74
2022/12/31 13:49:54;;;;;;;3.63;0.80;;;;;;;;;;4997539;28;20022;-74
2022/12/31 13:52:20;;;;;;;;;;;;;;;;;;4976663;28;20039;-74
2022/12/31 13:55:06;;;;;;;0.93;0.68;;;;;;;;;;4987973;28;19906;-74
2022/12/31 13:57:38;;;;;;;0.82;0.40;;;;;;;;;;4973158;28;20053;-75
2022/12/31 14:00:24;;;;;;;1.27;0.70;;;;;;;;;;4978071;28;20489;-70
2022/12/31 14:03:23;;;;;;;2.83;1.05;;;;;;;;;;4987691;28;20105;-75
2022/12/31 14:05:51;;;;;;;2.08;0.75;;;;;;;;;;4949972;28;20522;-74
2022/12/31 14:08:18;;;;;;;1.02;0.73;;;;;;;;;;4986037;28;20026;-73
2022/12/31 14:11:03;;;;;;;2.80;1.00;;;;;;;;;;4974850;28;20524;-76
2022/12/31 14:13:31;;;;;;;3.42;1.40;;;;;;;;;;4982750;28;20093;-72
2022/12/31 14:15:57;;;;;;;2.95;1.33;;;;;;;;;;4983849;28;20026;-74
2022/12/31 14:18:29;;;;;;;3.13;1.40;;;;;;;;;;4975010;28;20434;-73
2022/12/31 14:21:07;;;;;;;2.10;1.30;;;;;;;;;;4961697;28;20047;-74
2022/12/31 14:23:39;;;;;;;1.48;1.10;;;;;;;;;;4985543;28;20069;-75
2022/12/31 14:26:08;;;;;;;5.18;1.25;;;;;;;;;;4987979;28;20031;-74
2022/12/31 14:28:37;;;;;;;2.85;0.90;;;;;;;;;;4977724;28;20073;-76
2022/12/31 14:31:25;;;;;;;1.73;1.00;;;;;;;;;;4989193;28;20121;-73
2022/12/31 14:33:54;;;;;;;2.10;1.00;;;;;;;;;;4984277;28;20036;-75
2022/12/31 14:36:44;;;;;;;2.38;1.13;;;;;;;;;;4979051;28;20389;-74
2022/12/31 14:39:29;;;;;;;1.98;0.90;;;;;;;;;;4966010;28;20042;-74
2022/12/31 14:41:55;;;;;;;3.15;1.27;;;;;;;;;;4982402;28;20054;-75
2022/12/31 14:44:39;;;;;;;2.60;1.10;;;;;;;;;;5004734;28;20058;-70
2022/12/31 14:47:30;;;;;;;1.65;1.00;;;;;;;;;;4964792;28;20022;-74
2022/12/31 14:49:59;;;;;;;4.70;1.33;;;;;;;;;;4982486;28;20023;-72
2022/12/31 14:52:32;;;;;;;2.30;1.40;;;;;;;;;;4990791;28;20064;-75
2022/12/31 14:55:13;;;;;;;4.30;1.83;;;;;;;;;;5039811;22;20049;-75
2022/12/31 14:57:40;;;;;;;2.65;1.17;;;;;;;;;;5033036;28;20483;-75
2022/12/31 15:00:22;;;;;;;1.45;1.00;;;;;;;;;;5033207;28;20025;-75
2022/12/31 15:02:49;;;;;;;2.08;1.00;;;;;;;;;;5033255;28;20500;-74
2022/12/31 15:05:17;;;;;;;3.60;1.50;;;;;;;;;;5026568;28;20049;-75
2022/12/31 15:07:46;;;;;;;3.03;1.30;;;;;;;;;;5022785;28;20025;-74
2022/12/31 15:10:12;;;;;;;2.08;1.17;;;;;;;;;;5019794;28;20026;-75
2022/12/31 15:12:48;;;;;;;0.88;0.82;;;;;;;;;;5029447;28;20030;-75
2022/12/31 15:15:32;;;;;;;11.05;6.55;;;;;;;;;;5019379;28;20396;-73
2022/12/31 15:18:02;;;;;;;2.47;0.80;;;;;;;;;;5002127;28;20439;-75
2022/12/31 15:20:28;;;;;;;3.72;1.90;;;;;;;;;;5029340;28;20391;-74
2022/12/31 15:22:54;;;;;;;3.47;1.25;;;;;;;;;;5016550;28;20108;-75
2022/12/31 15:25:29;;;;;;;4.50;1.00;;;;;;;;;;5025663;28;20503;-75
2022/12/31 15:28:00;;;;;;;6.40;1.90;;;;;;;;;;5024199;28;20035;-75
2022/12/31 15:30:30;;;;;;;3.33;1.48;;;;;;;;;;5015712;28;20022;-72